createdAt,value
2022-12-08T00:01:24.341Z,100.00
2022-12-08T00:03:51.509Z,100.00
2022-12-08T00:06:42.688Z,100.00
2022-12-08T00:09:24.276Z,100.00
2022-12-08T00:12:03.257Z,100.00
2022-12-08T00:14:32.735Z,100.00
2022-12-08T00:17:00.514Z,100.00
2022-12-08T00:19:28.147Z,100.00
2022-12-08T00:21:55.264Z,100.00
2022-12-08T00:24:25.013Z,100.00
2022-12-08T00:26:51.889Z,100.00
2022-12-08T00:29:18.563Z,100.00
2022-12-08T00:31:45.219Z,100.00
2022-12-08T00:34:13.806Z,100.00
2022-12-08T00:36:40.549Z,100.00
2022-12-08T00:39:07.194Z,100.00
2022-12-08T00:42:03.243Z,100.00
2022-12-08T00:44:29.861Z,100.00
2022-12-08T00:46:56.829Z,100.00
2022-12-08T00:49:23.754Z,100.00
2022-12-08T00:51:50.311Z,100.00
2022-12-08T00:54:17.361Z,100.00
2022-12-08T00:56:43.883Z,100.00
2022-12-08T00:59:10.542Z,100.00
2022-12-08T01:01:37.022Z,100.00
2022-12-08T01:04:08.964Z,100.00
2022-12-08T01:06:36.155Z,100.00
2022-12-08T01:09:05.272Z,100.00
2022-12-08T01:11:32.614Z,100.00
2022-12-08T01:13:59.259Z,100.00
2022-12-08T01:16:29.247Z,100.00
2022-12-08T01:18:57.846Z,100.00
2022-12-08T01:21:25.131Z,100.00
2022-12-08T01:23:51.761Z,100.00
2022-12-08T01:26:19.649Z,100.00
2022-12-08T01:28:47.226Z,100.00
2022-12-08T01:31:16.990Z,100.00
2022-12-08T01:33:44.655Z,100.00
2022-12-08T01:36:41.071Z,100.00
2022-12-08T01:39:17.611Z,100.00
2022-12-08T01:41:46.550Z,100.00
2022-12-08T01:44:12.988Z,100.00
2022-12-08T01:46:45.657Z,100.00
2022-12-08T01:49:26.462Z,100.00
2022-12-08T01:51:58.617Z,100.00
2022-12-08T01:54:29.213Z,100.00
2022-12-08T01:57:00.559Z,100.00
2022-12-08T01:59:28.922Z,100.00
2022-12-08T02:01:56.898Z,100.00
2022-12-08T02:04:23.388Z,100.00
2022-12-08T02:06:51.635Z,100.00
2022-12-08T02:09:19.243Z,100.00
2022-12-08T02:11:45.997Z,100.00
2022-12-08T02:14:14.050Z,100.00
2022-12-08T02:16:56.754Z,100.00
2022-12-08T02:20:08.249Z,100.00
2022-12-08T02:22:54.755Z,100.00
2022-12-08T02:25:34.501Z,100.00
2022-12-08T02:28:36.266Z,100.00
2022-12-08T02:31:54.824Z,100.00
2022-12-08T02:34:30.378Z,100.00
2022-12-08T02:37:06.500Z,100.00
2022-12-08T02:39:42.095Z,100.00
2022-12-08T02:42:17.609Z,100.00
2022-12-08T02:45:12.549Z,100.00
2022-12-08T02:47:40.281Z,100.00
2022-12-08T02:50:07.637Z,100.00
2022-12-08T02:52:34.069Z,100.00
2022-12-08T02:55:06.623Z,100.00
2022-12-08T02:57:52.378Z,100.00
2022-12-08T03:00:22.179Z,100.00
2022-12-08T03:03:00.243Z,100.00
2022-12-08T03:05:51.165Z,100.00
2022-12-08T03:08:32.318Z,100.00
2022-12-08T03:11:10.482Z,100.00
2022-12-08T03:13:44.752Z,100.00
2022-12-08T03:16:15.549Z,100.00
2022-12-08T03:18:48.705Z,100.00
2022-12-08T03:21:18.236Z,100.00
2022-12-08T03:23:48.014Z,100.00
2022-12-08T03:26:25.004Z,100.00
2022-12-08T03:28:51.639Z,100.00
2022-12-08T03:31:20.046Z,100.00
2022-12-08T03:33:51.850Z,100.00
2022-12-08T03:36:19.617Z,100.00
2022-12-08T03:38:49.877Z,100.00
2022-12-08T03:41:19.209Z,100.00
2022-12-08T03:43:50.764Z,100.00
2022-12-08T03:46:18.466Z,100.00
2022-12-08T03:48:45.141Z,100.00
2022-12-08T03:51:11.994Z,100.00
2022-12-08T03:53:38.512Z,100.00
2022-12-08T03:56:26.641Z,100.00
2022-12-08T03:58:54.292Z,100.00
2022-12-08T04:01:21.379Z,100.00
2022-12-08T04:03:48.715Z,100.00
2022-12-08T04:06:15.456Z,100.00
2022-12-08T04:08:42.348Z,100.00
2022-12-08T04:11:08.936Z,100.00
2022-12-08T04:13:36.816Z,100.00
2022-12-08T04:16:03.993Z,100.00
2022-12-08T04:18:31.343Z,100.00
2022-12-08T04:20:57.880Z,100.00
2022-12-08T04:23:24.394Z,100.00
2022-12-08T04:25:52.075Z,100.00
2022-12-08T04:28:18.997Z,100.00
2022-12-08T04:30:45.844Z,100.00
2022-12-08T04:33:12.355Z,100.00
2022-12-08T04:35:38.873Z,100.00
2022-12-08T04:38:05.502Z,100.00
2022-12-08T04:40:31.981Z,100.00
2022-12-08T04:42:58.480Z,100.00
2022-12-08T04:45:24.960Z,100.00
2022-12-08T04:47:51.410Z,100.00
2022-12-08T04:50:18.007Z,100.00
2022-12-08T04:52:44.496Z,100.00
2022-12-08T04:55:11.373Z,100.00
2022-12-08T04:57:37.860Z,100.00
2022-12-08T05:00:06.025Z,100.00
2022-12-08T05:02:32.875Z,100.00
2022-12-08T05:05:00.206Z,100.00
2022-12-08T05:07:27.143Z,100.00
2022-12-08T05:09:53.585Z,100.00
2022-12-08T05:12:20.044Z,100.00
2022-12-08T05:14:49.714Z,100.00
2022-12-08T05:17:17.002Z,100.00
2022-12-08T05:19:43.562Z,100.00
2022-12-08T05:22:10.392Z,100.00
2022-12-08T05:24:36.916Z,100.00
2022-12-08T05:27:03.571Z,100.00
2022-12-08T05:29:30.098Z,100.00
2022-12-08T05:31:56.773Z,100.00
2022-12-08T05:34:23.406Z,100.00
2022-12-08T05:36:49.905Z,100.00
2022-12-08T05:39:16.415Z,100.00
2022-12-08T05:41:42.866Z,100.00
2022-12-08T05:44:09.400Z,100.00
2022-12-08T05:46:36.820Z,100.00
2022-12-08T05:49:03.999Z,100.00
2022-12-08T05:51:30.877Z,100.00
2022-12-08T05:53:57.564Z,100.00
2022-12-08T05:56:24.107Z,100.00
2022-12-08T05:58:51.013Z,100.00
2022-12-08T06:01:28.390Z,100.00
2022-12-08T06:03:55.318Z,100.00
2022-12-08T06:06:21.898Z,100.00
2022-12-08T06:08:48.581Z,100.00
2022-12-08T06:11:26.872Z,100.00
2022-12-08T06:13:53.779Z,100.00
2022-12-08T06:16:20.552Z,100.00
2022-12-08T06:18:47.121Z,100.00
2022-12-08T06:21:15.215Z,100.00
2022-12-08T06:23:42.557Z,100.00
2022-12-08T06:26:12.464Z,100.00
2022-12-08T06:28:40.437Z,100.00
2022-12-08T06:31:16.263Z,100.00
2022-12-08T06:33:43.441Z,100.00
2022-12-08T06:36:12.674Z,100.00
2022-12-08T06:38:43.106Z,100.00
2022-12-08T06:41:10.163Z,100.00
2022-12-08T06:43:36.862Z,100.00
2022-12-08T06:46:06.474Z,100.00
2022-12-08T06:48:33.095Z,100.00
2022-12-08T06:51:13.694Z,100.00
2022-12-08T06:53:41.282Z,100.00
2022-12-08T06:56:08.232Z,100.00
2022-12-08T06:58:35.568Z,100.00
2022-12-08T07:01:12.801Z,100.00
2022-12-08T07:03:40.655Z,100.00
2022-12-08T07:06:07.812Z,100.00
2022-12-08T07:08:35.163Z,100.00
2022-12-08T07:11:10.409Z,100.00
2022-12-08T07:13:37.320Z,100.00
2022-12-08T07:16:08.962Z,100.00
2022-12-08T07:18:36.632Z,100.00
2022-12-08T07:21:11.868Z,100.00
2022-12-08T07:23:38.460Z,100.00
2022-12-08T07:26:07.851Z,100.00
2022-12-08T07:28:36.344Z,100.00
2022-12-08T07:31:03.019Z,100.00
2022-12-08T07:33:29.742Z,100.00
2022-12-08T07:36:05.193Z,100.00
2022-12-08T07:38:32.165Z,100.00
2022-12-08T07:40:59.252Z,100.00
2022-12-08T07:43:25.825Z,100.00
2022-12-08T07:45:52.470Z,100.00
2022-12-08T07:48:19.743Z,100.00
2022-12-08T07:50:47.397Z,100.00
2022-12-08T07:53:14.345Z,100.00
2022-12-08T07:55:44.386Z,100.00
2022-12-08T07:58:11.840Z,100.00
2022-12-08T08:00:38.476Z,100.00
2022-12-08T08:03:06.093Z,100.00
2022-12-08T08:05:32.744Z,100.00
2022-12-08T08:07:59.250Z,100.00
2022-12-08T08:10:26.213Z,100.00
2022-12-08T08:12:52.782Z,100.00
2022-12-08T08:15:21.203Z,100.00
2022-12-08T08:17:53.641Z,100.00
2022-12-08T08:20:21.541Z,100.00
2022-12-08T08:22:49.953Z,100.00
2022-12-08T08:25:18.024Z,100.00
2022-12-08T08:27:45.630Z,100.00
2022-12-08T08:30:18.353Z,100.00
2022-12-08T08:32:47.343Z,100.00
2022-12-08T08:35:13.928Z,100.00
2022-12-08T08:37:43.119Z,100.00
2022-12-08T08:40:13.748Z,100.00
2022-12-08T08:42:40.392Z,100.00
2022-12-08T08:45:07.415Z,100.00
2022-12-08T08:47:33.998Z,100.00
2022-12-08T08:50:00.588Z,100.00
2022-12-08T08:52:27.217Z,100.00
2022-12-08T08:54:53.688Z,100.00
2022-12-08T08:57:25.294Z,100.00
2022-12-08T08:59:52.512Z,100.00
2022-12-08T09:02:20.132Z,100.00
2022-12-08T09:04:46.999Z,100.00
2022-12-08T09:07:13.934Z,100.00
2022-12-08T09:09:40.664Z,100.00
2022-12-08T09:12:07.625Z,100.00
2022-12-08T09:14:34.452Z,100.00
2022-12-08T09:17:01.040Z,100.00
2022-12-08T09:19:27.457Z,100.00
2022-12-08T09:21:54.061Z,100.00
2022-12-08T09:24:20.608Z,100.00
2022-12-08T09:26:47.448Z,100.00
2022-12-08T09:29:14.727Z,100.00
2022-12-08T09:31:42.176Z,100.00
2022-12-08T09:34:10.768Z,100.00
2022-12-08T09:36:37.223Z,100.00
2022-12-08T09:39:04.106Z,100.00
2022-12-08T09:41:40.678Z,100.00
2022-12-08T09:44:20.631Z,100.00
2022-12-08T09:46:51.875Z,100.00
2022-12-08T09:49:22.272Z,100.00
2022-12-08T09:51:48.783Z,100.00
2022-12-08T09:54:18.420Z,100.00
2022-12-08T09:56:44.966Z,100.00
2022-12-08T09:59:29.291Z,100.00
2022-12-08T10:01:55.852Z,100.00
2022-12-08T10:04:37.628Z,100.00
2022-12-08T10:07:10.186Z,100.00
2022-12-08T10:10:05.395Z,100.00
2022-12-08T10:13:07.255Z,100.00
2022-12-08T10:15:36.768Z,100.00
2022-12-08T10:18:10.275Z,100.00
2022-12-08T10:20:40.145Z,100.00
2022-12-08T10:23:12.432Z,100.00
2022-12-08T10:25:46.874Z,99.73
2022-12-08T10:28:13.468Z,99.86
2022-12-08T10:30:40.252Z,99.60
2022-12-08T10:33:14.325Z,99.71
2022-12-08T10:35:54.683Z,99.50
2022-12-08T10:38:29.676Z,100.00
2022-12-08T10:41:19.657Z,99.78
2022-12-08T10:43:54.918Z,99.95
2022-12-08T10:46:26.984Z,100.00
2022-12-08T10:48:56.040Z,99.84
2022-12-08T10:51:26.581Z,99.89
2022-12-08T10:53:53.225Z,99.95
2022-12-08T10:56:19.794Z,100.00
2022-12-08T10:58:47.629Z,100.00
2022-12-08T11:01:20.014Z,99.78
2022-12-08T11:03:56.205Z,99.72
2022-12-08T11:06:22.685Z,99.67
2022-12-08T11:09:01.449Z,99.89
2022-12-08T11:12:06.404Z,99.82
2022-12-08T11:14:42.078Z,99.49
2022-12-08T11:17:13.170Z,100.00
2022-12-08T11:19:41.936Z,99.81
2022-12-08T11:22:33.996Z,99.56
2022-12-08T11:25:11.390Z,99.77
2022-12-08T11:27:41.767Z,99.59
2022-12-08T11:30:21.075Z,99.18
2022-12-08T11:32:51.196Z,99.52
2022-12-08T11:35:35.086Z,99.57
2022-12-08T11:38:23.099Z,99.67
2022-12-08T11:41:16.057Z,99.11
2022-12-08T11:44:12.151Z,99.79
2022-12-08T11:47:05.281Z,99.69
2022-12-08T11:49:36.208Z,99.24
2022-12-08T11:52:29.470Z,98.99
2022-12-08T11:55:26.532Z,98.78
2022-12-08T11:57:56.982Z,98.94
2022-12-08T12:00:23.684Z,98.47
2022-12-08T12:02:59.380Z,98.49
2022-12-08T12:05:39.974Z,98.84
2022-12-08T12:08:18.720Z,98.55
2022-12-08T12:11:01.884Z,98.65
2022-12-08T12:14:04.361Z,98.02
2022-12-08T12:16:43.209Z,97.75
2022-12-08T12:19:17.896Z,97.72
2022-12-08T12:21:55.083Z,97.46
2022-12-08T12:24:36.115Z,97.59
2022-12-08T12:27:15.687Z,97.90
2022-12-08T12:29:52.230Z,97.16
2022-12-08T12:32:23.257Z,97.00
2022-12-08T12:34:58.972Z,96.89
2022-12-08T12:37:41.715Z,96.72
2022-12-08T12:40:34.203Z,97.41
2022-12-08T12:43:00.677Z,97.44
2022-12-08T12:45:33.101Z,97.42
2022-12-08T12:47:59.986Z,96.87
2022-12-08T12:50:38.521Z,97.34
2022-12-08T12:53:18.266Z,97.12
2022-12-08T12:55:59.549Z,97.59
2022-12-08T12:58:29.751Z,97.05
2022-12-08T13:01:08.401Z,97.53
2022-12-08T13:03:35.135Z,97.50
2022-12-08T13:06:02.169Z,96.88
2022-12-08T13:08:28.804Z,96.94
2022-12-08T13:11:03.142Z,96.68
2022-12-08T13:13:29.976Z,96.69
2022-12-08T13:16:19.260Z,96.74
2022-12-08T13:18:52.279Z,97.01
2022-12-08T13:21:22.845Z,97.38
2022-12-08T13:24:14.095Z,96.77
2022-12-08T13:26:46.453Z,96.62
2022-12-08T13:29:21.802Z,96.79
2022-12-08T13:31:58.483Z,96.53
2022-12-08T13:34:41.671Z,96.52
2022-12-08T13:37:08.080Z,97.13
2022-12-08T13:39:52.443Z,97.12
2022-12-08T13:42:31.245Z,97.02
2022-12-08T13:45:36.246Z,97.66
2022-12-08T13:55:01.907Z,97.74
2022-12-08T13:57:06.827Z,97.73
2022-12-08T13:59:44.441Z,97.68
2022-12-08T14:02:20.885Z,97.29
2022-12-08T14:05:17.595Z,97.50
2022-12-08T14:07:34.843Z,97.35
2022-12-08T14:10:03.631Z,97.11
2022-12-08T14:12:31.628Z,96.93
2022-12-08T14:15:03.799Z,96.87
2022-12-08T14:17:31.338Z,97.01
2022-12-08T14:20:25.974Z,96.53
2022-12-08T14:22:53.587Z,96.89
2022-12-08T14:25:21.277Z,96.92
2022-12-08T14:27:48.642Z,97.02
2022-12-08T14:30:26.164Z,96.81
2022-12-08T14:32:56.193Z,97.48
2022-12-08T14:35:27.948Z,97.00
2022-12-08T14:38:00.248Z,97.83
2022-12-08T14:40:35.917Z,97.64
2022-12-08T14:43:08.087Z,97.54
2022-12-08T14:45:40.662Z,98.36
2022-12-08T14:48:23.894Z,97.85
2022-12-08T14:51:16.731Z,98.38
2022-12-08T14:54:02.707Z,98.53
2022-12-08T14:56:51.946Z,98.09
2022-12-08T14:59:27.100Z,98.81
2022-12-08T15:02:10.482Z,99.02
2022-12-08T15:04:44.167Z,99.05
2022-12-08T15:07:15.653Z,99.07
2022-12-08T15:09:44.934Z,99.13
2022-12-08T15:12:14.134Z,99.36
2022-12-08T15:15:02.004Z,99.41
2022-12-08T15:17:35.783Z,99.40
2022-12-08T15:20:04.589Z,99.80
2022-12-08T15:22:31.648Z,99.81
2022-12-08T15:24:58.630Z,99.41
2022-12-08T15:27:26.474Z,100.00
2022-12-08T15:29:53.539Z,100.00
2022-12-08T15:32:22.538Z,100.00
2022-12-08T15:34:49.776Z,100.00
2022-12-08T15:37:21.805Z,100.00
2022-12-08T15:39:48.901Z,100.00
2022-12-08T15:42:15.599Z,100.00
2022-12-08T15:44:42.344Z,100.00
2022-12-08T15:47:20.025Z,100.00
2022-12-08T15:49:47.784Z,100.00
2022-12-08T15:52:16.607Z,100.00
2022-12-08T15:54:43.216Z,100.00
2022-12-08T15:58:04.126Z,100.00
2022-12-08T16:00:51.993Z,100.00
2022-12-08T16:09:28.032Z,99.92
2022-12-08T16:12:13.776Z,100.00
2022-12-08T16:17:28.941Z,100.00
2022-12-08T16:19:55.658Z,100.00
2022-12-08T16:25:20.307Z,100.00
2022-12-08T16:30:36.487Z,100.00
2022-12-08T16:33:02.976Z,100.00
2022-12-08T16:35:30.653Z,100.00
2022-12-08T16:37:57.640Z,100.00
2022-12-08T16:40:24.200Z,100.00
2022-12-08T16:42:50.801Z,100.00
2022-12-08T16:45:21.717Z,100.00
2022-12-08T16:47:50.699Z,100.00
2022-12-08T16:50:18.657Z,100.00
2022-12-08T16:52:46.081Z,100.00
2022-12-08T16:55:15.890Z,100.00
2022-12-08T16:57:42.733Z,100.00
2022-12-08T17:00:13.917Z,100.00
2022-12-08T17:02:40.423Z,100.00
2022-12-08T17:05:07.390Z,100.00
2022-12-08T17:07:35.514Z,100.00
2022-12-08T17:10:07.235Z,100.00
2022-12-08T17:12:35.774Z,100.00
2022-12-08T17:15:08.712Z,100.00
2022-12-08T17:17:36.468Z,100.00
2022-12-08T17:20:06.460Z,100.00
2022-12-08T17:22:34.946Z,100.00
2022-12-08T17:25:04.997Z,100.00
2022-12-08T17:27:31.769Z,100.00
2022-12-08T17:29:58.388Z,100.00
2022-12-08T17:32:25.111Z,100.00
2022-12-08T17:34:51.600Z,100.00
2022-12-08T17:37:19.018Z,100.00
2022-12-08T17:39:45.677Z,100.00
2022-12-08T17:42:12.236Z,100.00
2022-12-08T17:44:38.771Z,100.00
2022-12-08T17:47:05.538Z,100.00
2022-12-08T17:49:33.905Z,100.00
2022-12-08T17:52:04.367Z,100.00
2022-12-08T17:54:31.262Z,100.00
2022-12-08T17:56:58.801Z,100.00
2022-12-08T17:59:27.468Z,100.00
2022-12-08T18:01:54.934Z,100.00
2022-12-08T18:04:21.560Z,100.00
2022-12-08T18:06:48.344Z,100.00
2022-12-08T18:09:15.751Z,100.00
2022-12-08T18:11:43.478Z,100.00
2022-12-08T18:14:11.661Z,100.00
2022-12-08T18:16:43.821Z,100.00
2022-12-08T18:19:12.501Z,100.00
2022-12-08T18:21:39.559Z,100.00
2022-12-08T18:24:08.732Z,100.00
2022-12-08T18:26:35.578Z,100.00
2022-12-08T18:29:02.207Z,100.00
2022-12-08T18:31:28.956Z,100.00
2022-12-08T18:33:55.543Z,100.00
2022-12-08T18:36:25.149Z,100.00
2022-12-08T18:38:52.900Z,100.00
2022-12-08T18:41:26.058Z,100.00
2022-12-08T18:43:53.697Z,100.00
2022-12-08T18:46:20.405Z,100.00
2022-12-08T18:48:48.985Z,100.00
2022-12-08T18:51:20.976Z,100.00
2022-12-08T18:53:47.869Z,100.00
2022-12-08T18:56:27.862Z,100.00
2022-12-08T18:59:02.595Z,100.00
2022-12-08T19:01:31.439Z,100.00
2022-12-08T19:06:49.789Z,100.00
2022-12-08T19:09:17.255Z,100.00
2022-12-08T19:11:44.254Z,100.00
2022-12-08T19:14:11.083Z,100.00
2022-12-08T19:16:38.184Z,100.00
2022-12-08T19:19:05.098Z,100.00
2022-12-08T19:21:32.565Z,100.00
2022-12-08T19:24:02.920Z,100.00
2022-12-08T19:26:29.462Z,100.00
2022-12-08T19:28:57.336Z,100.00
2022-12-08T19:31:23.957Z,100.00
2022-12-08T19:33:50.629Z,100.00
2022-12-08T19:36:20.393Z,100.00
2022-12-08T19:39:06.297Z,100.00
2022-12-08T19:41:52.026Z,100.00
2022-12-08T19:44:34.369Z,100.00
2022-12-08T19:47:01.672Z,100.00
2022-12-08T19:49:28.420Z,100.00
2022-12-08T19:51:55.146Z,100.00
2022-12-08T19:54:21.713Z,100.00
2022-12-08T19:56:48.313Z,100.00
2022-12-08T19:59:15.727Z,100.00
2022-12-08T20:01:44.172Z,100.00
2022-12-08T20:04:19.982Z,100.00
2022-12-08T20:06:46.678Z,100.00
2022-12-08T20:09:13.332Z,100.00
2022-12-08T20:11:40.698Z,100.00
2022-12-08T20:14:07.753Z,100.00
2022-12-08T20:16:34.739Z,100.00
2022-12-08T20:19:02.045Z,100.00
2022-12-08T20:21:28.666Z,100.00
2022-12-08T20:23:55.159Z,100.00
2022-12-08T20:26:22.886Z,100.00
2022-12-08T20:28:49.930Z,100.00
2022-12-08T20:31:23.940Z,100.00
2022-12-08T20:33:50.953Z,100.00
2022-12-08T20:36:19.997Z,100.00
2022-12-08T20:38:50.951Z,100.00
2022-12-08T20:41:18.333Z,100.00
2022-12-08T20:43:46.620Z,100.00
2022-12-08T20:46:15.491Z,100.00
2022-12-08T20:48:42.998Z,100.00
2022-12-08T20:51:13.412Z,100.00
2022-12-08T20:53:40.272Z,100.00
2022-12-08T20:56:07.402Z,100.00
2022-12-08T20:58:34.145Z,100.00
2022-12-08T21:01:00.873Z,100.00
2022-12-08T21:03:27.524Z,100.00
2022-12-08T21:05:54.217Z,100.00
2022-12-08T21:08:20.922Z,100.00
2022-12-08T21:10:54.115Z,100.00
2022-12-08T21:13:21.231Z,100.00
2022-12-08T21:15:48.089Z,100.00
2022-12-08T21:18:16.599Z,100.00
2022-12-08T21:20:43.771Z,100.00
2022-12-08T21:23:11.362Z,100.00
2022-12-08T21:25:43.334Z,100.00
2022-12-08T21:28:10.570Z,100.00
2022-12-08T21:30:39.853Z,100.00
2022-12-08T21:33:06.709Z,100.00
2022-12-08T21:35:33.477Z,100.00
2022-12-08T21:38:00.229Z,100.00
2022-12-08T21:40:27.060Z,100.00
2022-12-08T21:42:53.773Z,100.00
2022-12-08T21:45:21.320Z,100.00
2022-12-08T21:47:49.337Z,100.00
2022-12-08T21:50:16.481Z,100.00
2022-12-08T21:52:45.333Z,100.00
2022-12-08T21:55:13.041Z,100.00
2022-12-08T21:57:40.648Z,100.00
2022-12-08T22:00:08.965Z,100.00
2022-12-08T22:02:36.175Z,100.00
2022-12-08T22:05:02.901Z,100.00
2022-12-08T22:07:29.382Z,100.00
2022-12-08T22:09:55.954Z,100.00
2022-12-08T22:12:22.693Z,100.00
2022-12-08T22:14:50.969Z,100.00
2022-12-08T22:17:18.654Z,100.00
2022-12-08T22:19:45.355Z,100.00
2022-12-08T22:22:12.083Z,100.00
2022-12-08T22:24:38.688Z,100.00
2022-12-08T22:27:05.594Z,100.00
2022-12-08T22:29:32.325Z,100.00
2022-12-08T22:31:58.899Z,100.00
2022-12-08T22:34:25.605Z,100.00
2022-12-08T22:36:52.169Z,100.00
2022-12-08T22:39:18.711Z,100.00
2022-12-08T22:41:45.370Z,100.00
2022-12-08T22:44:12.714Z,100.00
2022-12-08T22:46:39.379Z,100.00
2022-12-08T22:49:05.920Z,100.00
2022-12-08T22:51:35.841Z,100.00
2022-12-08T22:54:02.297Z,100.00
2022-12-08T22:56:29.019Z,100.00
2022-12-08T22:58:55.650Z,100.00
2022-12-08T23:01:25.095Z,100.00
2022-12-08T23:03:52.265Z,100.00
2022-12-08T23:06:19.199Z,100.00
2022-12-08T23:08:46.047Z,100.00
2022-12-08T23:11:13.299Z,100.00
2022-12-08T23:13:39.971Z,100.00
2022-12-08T23:16:11.642Z,100.00
2022-12-08T23:18:42.110Z,100.00
2022-12-08T23:21:12.071Z,100.00
2022-12-08T23:23:39.217Z,100.00
2022-12-08T23:26:21.987Z,100.00
2022-12-08T23:28:49.220Z,100.00
2022-12-08T23:31:16.801Z,100.00
2022-12-08T23:33:44.265Z,100.00
2022-12-08T23:36:12.319Z,100.00
2022-12-08T23:38:38.961Z,100.00
2022-12-08T23:41:07.380Z,100.00
2022-12-08T23:43:34.528Z,100.00
2022-12-08T23:46:01.337Z,100.00
2022-12-08T23:48:29.142Z,100.00
2022-12-08T23:50:57.030Z,100.00
2022-12-08T23:53:23.956Z,100.00
2022-12-08T23:55:50.637Z,100.00
2022-12-08T23:58:17.155Z,100.00
